sensor_id;sensor_type;location;lat;lon;timestamp;pressure;altitude;pressure_sealevel;temperature;humidity
30636;BME280;17400;52.392;9.750;2023-07-13T00:00:03;100719.44;;;21.69;77.06
30636;BME280;17400;52.392;9.750;2023-07-13T00:02:35;100722.75;;;21.76;76.65
30636;BME280;17400;52.392;9.750;2023-07-13T00:05:05;100715.84;;;21.73;76.64
30636;BME280;17400;52.392;9.750;2023-07-13T00:07:33;100722.19;;;21.74;76.64
30636;BME280;17400;52.392;9.750;2023-07-13T00:10:02;100727.72;;;21.74;76.14
30636;BME280;17400;52.392;9.750;2023-07-13T00:12:31;100732.91;;;21.65;76.66
30636;BME280;17400;52.392;9.750;2023-07-13T00:15:03;100728.22;;;21.55;76.58
30636;BME280;17400;52.392;9.750;2023-07-13T00:17:31;100726.00;;;21.57;76.32
30636;BME280;17400;52.392;9.750;2023-07-13T00:19:59;100729.31;;;21.54;76.71
30636;BME280;17400;52.392;9.750;2023-07-13T00:22:28;100735.88;;;21.53;76.67
30636;BME280;17400;52.392;9.750;2023-07-13T00:24:56;100738.63;;;21.53;77.08
30636;BME280;17400;52.392;9.750;2023-07-13T00:27:24;100744.19;;;21.58;76.04
30636;BME280;17400;52.392;9.750;2023-07-13T00:29:53;100744.47;;;21.57;76.42
30636;BME280;17400;52.392;9.750;2023-07-13T00:32:21;100735.63;;;21.55;76.45
30636;BME280;17400;52.392;9.750;2023-07-13T00:34:48;100736.69;;;21.49;77.46
30636;BME280;17400;52.392;9.750;2023-07-13T00:37:17;100742.72;;;21.45;78.27
30636;BME280;17400;52.392;9.750;2023-07-13T00:39:46;100736.41;;;21.45;78.84
30636;BME280;17400;52.392;9.750;2023-07-13T00:42:14;100735.03;;;21.47;79.57
30636;BME280;17400;52.392;9.750;2023-07-13T00:45:00;100727.31;;;21.50;79.64
30636;BME280;17400;52.392;9.750;2023-07-13T00:47:28;100726.78;;;21.53;80.37
30636;BME280;17400;52.392;9.750;2023-07-13T00:49:56;100735.84;;;21.48;80.67
30636;BME280;17400;52.392;9.750;2023-07-13T00:52:23;100738.31;;;21.50;81.19
30636;BME280;17400;52.392;9.750;2023-07-13T00:54:53;100728.69;;;21.52;81.10
30636;BME280;17400;52.392;9.750;2023-07-13T00:57:22;100734.81;;;21.54;82.14
30636;BME280;17400;52.392;9.750;2023-07-13T00:59:51;100730.91;;;21.50;83.41
30636;BME280;17400;52.392;9.750;2023-07-13T01:02:20;100729.81;;;21.51;83.71
30636;BME280;17400;52.392;9.750;2023-07-13T01:04:48;100731.19;;;21.49;83.15
30636;BME280;17400;52.392;9.750;2023-07-13T01:07:18;100721.75;;;21.34;83.16
30636;BME280;17400;52.392;9.750;2023-07-13T01:09:46;100717.56;;;21.21;83.12
30636;BME280;17400;52.392;9.750;2023-07-13T01:12:16;100718.13;;;21.18;83.35
30636;BME280;17400;52.392;9.750;2023-07-13T01:14:44;100718.59;;;21.10;84.42
30636;BME280;17400;52.392;9.750;2023-07-13T01:17:12;100723.50;;;20.97;85.13
30636;BME280;17400;52.392;9.750;2023-07-13T01:19:41;100727.06;;;20.98;84.97
30636;BME280;17400;52.392;9.750;2023-07-13T01:22:13;100728.75;;;20.99;84.94
30636;BME280;17400;52.392;9.750;2023-07-13T01:24:43;100726.03;;;21.04;84.46
30636;BME280;17400;52.392;9.750;2023-07-13T01:27:13;100721.84;;;20.96;85.18
30636;BME280;17400;52.392;9.750;2023-07-13T01:29:43;100727.06;;;20.98;84.21
30636;BME280;17400;52.392;9.750;2023-07-13T01:32:15;100725.97;;;20.94;84.06
30636;BME280;17400;52.392;9.750;2023-07-13T01:34:44;100719.88;;;20.87;84.83
30636;BME280;17400;52.392;9.750;2023-07-13T01:37:14;100729.22;;;20.86;84.54
30636;BME280;17400;52.392;9.750;2023-07-13T01:39:42;100720.91;;;20.75;84.85
30636;BME280;17400;52.392;9.750;2023-07-13T01:42:10;100724.25;;;20.83;84.44
30636;BME280;17400;52.392;9.750;2023-07-13T01:44:38;100735.00;;;20.84;84.11
30636;BME280;17400;52.392;9.750;2023-07-13T01:47:06;100726.94;;;20.72;84.42
30636;BME280;17400;52.392;9.750;2023-07-13T01:49:34;100728.88;;;20.77;83.93
30636;BME280;17400;52.392;9.750;2023-07-13T01:52:02;100737.41;;;20.75;83.44
30636;BME280;17400;52.392;9.750;2023-07-13T01:54:31;100726.97;;;20.77;83.42
30636;BME280;17400;52.392;9.750;2023-07-13T01:57:00;100728.84;;;20.72;83.38
30636;BME280;17400;52.392;9.750;2023-07-13T01:59:28;100732.44;;;20.72;83.70
30636;BME280;17400;52.392;9.750;2023-07-13T02:01:56;100737.34;;;20.70;83.73
30636;BME280;17400;52.392;9.750;2023-07-13T02:04:24;100735.91;;;20.62;84.16
30636;BME280;17400;52.392;9.750;2023-07-13T02:06:52;100737.78;;;20.57;84.25
30636;BME280;17400;52.392;9.750;2023-07-13T02:09:22;100754.25;;;20.52;84.68
30636;BME280;17400;52.392;9.750;2023-07-13T02:11:51;100754.81;;;20.54;84.80
30636;BME280;17400;52.392;9.750;2023-07-13T02:14:19;100748.78;;;20.57;84.58
30636;BME280;17400;52.392;9.750;2023-07-13T02:16:47;100748.91;;;20.40;85.50
30636;BME280;17400;52.392;9.750;2023-07-13T02:19:15;100755.53;;;20.39;85.23
30636;BME280;17400;52.392;9.750;2023-07-13T02:21:43;100755.28;;;20.40;85.26
30636;BME280;17400;52.392;9.750;2023-07-13T02:24:11;100754.47;;;20.45;84.60
30636;BME280;17400;52.392;9.750;2023-07-13T02:26:44;100755.88;;;20.47;84.12
30636;BME280;17400;52.392;9.750;2023-07-13T02:29:13;100752.31;;;20.47;84.12
30636;BME280;17400;52.392;9.750;2023-07-13T02:31:41;100748.97;;;20.45;83.62
30636;BME280;17400;52.392;9.750;2023-07-13T02:34:10;100752.03;;;20.48;83.68
30636;BME280;17400;52.392;9.750;2023-07-13T02:36:37;100753.97;;;20.48;83.38
30636;BME280;17400;52.392;9.750;2023-07-13T02:39:06;100752.25;;;20.42;83.48
30636;BME280;17400;52.392;9.750;2023-07-13T02:41:33;100757.44;;;20.38;83.50
30636;BME280;17400;52.392;9.750;2023-07-13T02:44:02;100760.19;;;20.38;83.27
30636;BME280;17400;52.392;9.750;2023-07-13T02:46:33;100754.66;;;20.33;83.72
30636;BME280;17400;52.392;9.750;2023-07-13T02:49:02;100752.13;;;20.26;83.38
30636;BME280;17400;52.392;9.750;2023-07-13T02:51:30;100751.78;;;20.18;84.22
30636;BME280;17400;52.392;9.750;2023-07-13T02:54:00;100753.63;;;20.12;84.36
30636;BME280;17400;52.392;9.750;2023-07-13T02:56:33;100749.25;;;20.16;83.98
30636;BME280;17400;52.392;9.750;2023-07-13T02:59:01;100760.56;;;20.20;83.65
30636;BME280;17400;52.392;9.750;2023-07-13T03:01:29;100744.63;;;20.17;83.68
30636;BME280;17400;52.392;9.750;2023-07-13T03:04:03;100749.31;;;20.21;83.11
30636;BME280;17400;52.392;9.750;2023-07-13T03:06:32;100753.56;;;20.07;84.16
30636;BME280;17400;52.392;9.750;2023-07-13T03:09:00;100758.50;;;20.05;84.02
30636;BME280;17400;52.392;9.750;2023-07-13T03:11:27;100761.53;;;20.03;84.00
30636;BME280;17400;52.392;9.750;2023-07-13T03:13:55;100758.94;;;19.91;84.69
30636;BME280;17400;52.392;9.750;2023-07-13T03:16:23;100763.63;;;19.96;84.40
30636;BME280;17400;52.392;9.750;2023-07-13T03:18:51;100754.91;;;19.99;83.77
30636;BME280;17400;52.392;9.750;2023-07-13T03:21:20;100757.06;;;19.97;83.70
30636;BME280;17400;52.392;9.750;2023-07-13T03:23:48;100761.97;;;19.95;83.47
30636;BME280;17400;52.392;9.750;2023-07-13T03:26:17;100748.88;;;20.02;83.05
30636;BME280;17400;52.392;9.750;2023-07-13T03:28:46;100752.75;;;20.06;82.48
30636;BME280;17400;52.392;9.750;2023-07-13T03:31:17;100759.13;;;20.12;82.27
30636;BME280;17400;52.392;9.750;2023-07-13T03:33:46;100756.69;;;19.88;83.45
30636;BME280;17400;52.392;9.750;2023-07-13T03:36:16;100753.69;;;19.90;83.33
30636;BME280;17400;52.392;9.750;2023-07-13T03:38:47;100751.44;;;19.87;83.37
30636;BME280;17400;52.392;9.750;2023-07-13T03:41:16;100754.72;;;19.84;83.35
30636;BME280;17400;52.392;9.750;2023-07-13T03:43:44;100756.94;;;19.87;82.97
30636;BME280;17400;52.392;9.750;2023-07-13T03:46:12;100754.72;;;19.84;83.20
30636;BME280;17400;52.392;9.750;2023-07-13T03:48:40;100754.72;;;19.84;83.01
30636;BME280;17400;52.392;9.750;2023-07-13T03:51:10;100752.03;;;19.89;82.51
30636;BME280;17400;52.392;9.750;2023-07-13T03:53:40;100747.84;;;19.81;82.78
30636;BME280;17400;52.392;9.750;2023-07-13T03:56:10;100757.38;;;19.78;83.50
30636;BME280;17400;52.392;9.750;2023-07-13T03:58:40;100762.69;;;19.85;82.90
30636;BME280;17400;52.392;9.750;2023-07-13T04:01:10;100765.78;;;19.89;82.49
30636;BME280;17400;52.392;9.750;2023-07-13T04:03:38;100765.25;;;19.92;82.38
30636;BME280;17400;52.392;9.750;2023-07-13T04:06:08;100773.34;;;20.04;81.72
30636;BME280;17400;52.392;9.750;2023-07-13T04:08:42;100767.56;;;20.05;81.32
30636;BME280;17400;52.392;9.750;2023-07-13T04:11:11;100771.56;;;19.92;81.19
30636;BME280;17400;52.392;9.750;2023-07-13T04:13:39;100783.34;;;19.88;80.92
30636;BME280;17400;52.392;9.750;2023-07-13T04:16:06;100776.22;;;19.70;81.60
30636;BME280;17400;52.392;9.750;2023-07-13T04:18:35;100776.88;;;19.77;81.80
30636;BME280;17400;52.392;9.750;2023-07-13T04:21:02;100785.00;;;19.89;81.32
30636;BME280;17400;52.392;9.750;2023-07-13T04:23:30;100781.66;;;19.87;81.55
30636;BME280;17400;52.392;9.750;2023-07-13T04:25:58;100783.94;;;19.95;82.07
30636;BME280;17400;52.392;9.750;2023-07-13T04:28:27;100793.31;;;19.94;82.14
30636;BME280;17400;52.392;9.750;2023-07-13T04:30:55;100784.00;;;20.00;81.53
30636;BME280;17400;52.392;9.750;2023-07-13T04:33:23;100782.09;;;20.01;81.33
30636;BME280;17400;52.392;9.750;2023-07-13T04:35:52;100790.34;;;20.01;81.48
30636;BME280;17400;52.392;9.750;2023-07-13T04:38:23;100787.88;;;19.99;81.53
30636;BME280;17400;52.392;9.750;2023-07-13T04:40:54;100793.78;;;19.91;81.99
30636;BME280;17400;52.392;9.750;2023-07-13T04:43:22;100792.72;;;19.92;81.93
30636;BME280;17400;52.392;9.750;2023-07-13T04:45:52;100790.44;;;19.84;83.77
30636;BME280;17400;52.392;9.750;2023-07-13T04:48:20;100795.94;;;19.84;84.31
30636;BME280;17400;52.392;9.750;2023-07-13T04:50:54;100788.94;;;19.76;84.03
30636;BME280;17400;52.392;9.750;2023-07-13T04:53:22;100794.09;;;19.72;85.11
30636;BME280;17400;52.392;9.750;2023-07-13T04:55:51;100788.78;;;19.83;83.38
30636;BME280;17400;52.392;9.750;2023-07-13T04:58:19;100791.00;;;19.86;83.33
30636;BME280;17400;52.392;9.750;2023-07-13T05:00:47;100797.94;;;19.93;83.17
30636;BME280;17400;52.392;9.750;2023-07-13T05:03:17;100795.78;;;19.95;83.12
30636;BME280;17400;52.392;9.750;2023-07-13T05:05:54;100796.13;;;20.04;83.07
30636;BME280;17400;52.392;9.750;2023-07-13T05:08:23;100794.50;;;20.03;82.48
30636;BME280;17400;52.392;9.750;2023-07-13T05:10:51;100804.44;;;20.09;82.45
30636;BME280;17400;52.392;9.750;2023-07-13T05:13:19;100799.19;;;20.08;84.50
30636;BME280;17400;52.392;9.750;2023-07-13T05:15:48;100798.88;;;20.04;83.51
30636;BME280;17400;52.392;9.750;2023-07-13T05:18:23;100804.44;;;20.09;83.72
30636;BME280;17400;52.392;9.750;2023-07-13T05:21:00;100805.56;;;20.08;83.26
30636;BME280;17400;52.392;9.750;2023-07-13T05:23:29;100809.38;;;20.07;83.76
30636;BME280;17400;52.392;9.750;2023-07-13T05:25:57;100811.28;;;20.07;83.20
30636;BME280;17400;52.392;9.750;2023-07-13T05:28:26;100809.13;;;20.09;82.25
30636;BME280;17400;52.392;9.750;2023-07-13T05:30:55;100815.13;;;20.06;82.28
30636;BME280;17400;52.392;9.750;2023-07-13T05:33:24;100812.63;;;20.04;82.38
30636;BME280;17400;52.392;9.750;2023-07-13T05:35:53;100812.00;;;19.97;83.24
30636;BME280;17400;52.392;9.750;2023-07-13T05:38:21;100819.78;;;20.05;82.65
30636;BME280;17400;52.392;9.750;2023-07-13T05:40:49;100822.59;;;20.10;82.53
30636;BME280;17400;52.392;9.750;2023-07-13T05:43:17;100822.31;;;20.12;83.60
30636;BME280;17400;52.392;9.750;2023-07-13T05:45:45;100820.94;;;20.09;81.42
30636;BME280;17400;52.392;9.750;2023-07-13T05:48:13;100831.09;;;20.09;81.23
30636;BME280;17400;52.392;9.750;2023-07-13T05:50:42;100831.22;;;20.19;80.72
30636;BME280;17400;52.392;9.750;2023-07-13T05:53:10;100829.22;;;20.14;80.97
30636;BME280;17400;52.392;9.750;2023-07-13T05:55:41;100827.63;;;20.19;80.88
30636;BME280;17400;52.392;9.750;2023-07-13T05:58:09;100829.34;;;20.25;81.13
30636;BME280;17400;52.392;9.750;2023-07-13T06:00:37;100831.88;;;20.31;81.24
30636;BME280;17400;52.392;9.750;2023-07-13T06:03:06;100835.50;;;20.37;81.01
30636;BME280;17400;52.392;9.750;2023-07-13T06:05:34;100831.63;;;20.33;80.62
30636;BME280;17400;52.392;9.750;2023-07-13T06:08:05;100832.09;;;20.52;80.70
30636;BME280;17400;52.392;9.750;2023-07-13T06:10:33;100835.13;;;20.56;80.86
30636;BME280;17400;52.392;9.750;2023-07-13T06:13:03;100833.38;;;20.72;80.00
30636;BME280;17400;52.392;9.750;2023-07-13T06:15:31;100829.81;;;20.71;79.11
30636;BME280;17400;52.392;9.750;2023-07-13T06:18:00;100835.03;;;20.73;78.68
30636;BME280;17400;52.392;9.750;2023-07-13T06:20:29;100834.25;;;20.50;79.17
30636;BME280;17400;52.392;9.750;2023-07-13T06:22:57;100837.84;;;20.51;79.55
30636;BME280;17400;52.392;9.750;2023-07-13T06:25:27;100841.22;;;20.58;78.55
30636;BME280;17400;52.392;9.750;2023-07-13T06:27:55;100841.09;;;20.47;78.89
30636;BME280;17400;52.392;9.750;2023-07-13T06:30:23;100833.72;;;20.53;77.75
30636;BME280;17400;52.392;9.750;2023-07-13T06:32:51;100840.59;;;20.51;78.10
30636;BME280;17400;52.392;9.750;2023-07-13T06:35:18;100841.97;;;20.53;77.83
30636;BME280;17400;52.392;9.750;2023-07-13T06:37:46;100847.28;;;20.60;77.02
30636;BME280;17400;52.392;9.750;2023-07-13T06:40:14;100849.84;;;20.39;77.35
30636;BME280;17400;52.392;9.750;2023-07-13T06:42:43;100843.84;;;20.47;76.92
30636;BME280;17400;52.392;9.750;2023-07-13T06:45:11;100852.63;;;20.44;77.40
30636;BME280;17400;52.392;9.750;2023-07-13T06:47:39;100849.84;;;20.39;77.65
30636;BME280;17400;52.392;9.750;2023-07-13T06:50:09;100857.56;;;20.42;76.11
30636;BME280;17400;52.392;9.750;2023-07-13T06:52:37;100859.97;;;20.34;75.99
30636;BME280;17400;52.392;9.750;2023-07-13T06:55:05;100850.81;;;20.28;76.65
30636;BME280;17400;52.392;9.750;2023-07-13T06:57:33;100852.31;;;20.41;76.58
30636;BME280;17400;52.392;9.750;2023-07-13T07:00:03;100855.59;;;20.38;77.06
30636;BME280;17400;52.392;9.750;2023-07-13T07:02:33;100865.25;;;20.40;76.48
30636;BME280;17400;52.392;9.750;2023-07-13T07:05:01;100862.28;;;20.47;76.21
30636;BME280;17400;52.392;9.750;2023-07-13T07:07:29;100854.91;;;20.53;75.79
30636;BME280;17400;52.392;9.750;2023-07-13T07:09:56;100863.16;;;20.53;74.49
30636;BME280;17400;52.392;9.750;2023-07-13T07:12:24;100864.28;;;20.57;74.62
30636;BME280;17400;52.392;9.750;2023-07-13T07:14:52;100858.44;;;20.75;73.70
30636;BME280;17400;52.392;9.750;2023-07-13T07:17:21;100864.22;;;20.74;74.30
30636;BME280;17400;52.392;9.750;2023-07-13T07:19:50;100869.91;;;20.67;75.15
30636;BME280;17400;52.392;9.750;2023-07-13T07:22:20;100863.47;;;20.56;76.48
30636;BME280;17400;52.392;9.750;2023-07-13T07:24:48;100866.94;;;20.46;76.66
30636;BME280;17400;52.392;9.750;2023-07-13T07:27:16;100862.56;;;20.45;75.27
30636;BME280;17400;52.392;9.750;2023-07-13T07:29:46;100871.34;;;20.47;76.18
30636;BME280;17400;52.392;9.750;2023-07-13T07:32:35;100869.13;;;20.44;75.83
30636;BME280;17400;52.392;9.750;2023-07-13T07:35:07;100871.34;;;20.47;75.02
30636;BME280;17400;52.392;9.750;2023-07-13T07:37:34;100870.16;;;20.38;75.45
30636;BME280;17400;52.392;9.750;2023-07-13T07:40:07;100878.47;;;20.43;74.98
30636;BME280;17400;52.392;9.750;2023-07-13T07:42:38;100872.19;;;20.48;74.80
30636;BME280;17400;52.392;9.750;2023-07-13T07:45:06;100877.16;;;20.51;74.91
30636;BME280;17400;52.392;9.750;2023-07-13T07:47:35;100869.28;;;20.60;75.22
30636;BME280;17400;52.392;9.750;2023-07-13T07:50:04;100873.53;;;20.73;74.68
30636;BME280;17400;52.392;9.750;2023-07-13T07:52:32;100873.81;;;20.71;74.35
30636;BME280;17400;52.392;9.750;2023-07-13T07:54:59;100868.56;;;20.70;74.25
30636;BME280;17400;52.392;9.750;2023-07-13T07:57:30;100866.56;;;20.65;74.71
30636;BME280;17400;52.392;9.750;2023-07-13T08:00:19;100869.31;;;20.65;74.94
30636;BME280;17400;52.392;9.750;2023-07-13T08:02:52;100874.22;;;20.58;74.76
30636;BME280;17400;52.392;9.750;2023-07-13T08:05:23;100879.81;;;20.68;74.67
30636;BME280;17400;52.392;9.750;2023-07-13T08:08:08;100872.00;;;20.55;75.35
30636;BME280;17400;52.392;9.750;2023-07-13T08:10:36;100876.28;;;20.73;74.87
30636;BME280;17400;52.392;9.750;2023-07-13T08:13:04;100875.78;;;20.76;73.99
30636;BME280;17400;52.392;9.750;2023-07-13T08:15:36;100873.25;;;20.69;74.73
30636;BME280;17400;52.392;9.750;2023-07-13T08:18:05;100869.53;;;20.86;73.69
30636;BME280;17400;52.392;9.750;2023-07-13T08:20:36;100876.81;;;21.02;73.04
30636;BME280;17400;52.392;9.750;2023-07-13T08:23:05;100872.75;;;21.10;72.85
30636;BME280;17400;52.392;9.750;2023-07-13T08:25:33;100874.13;;;21.12;72.88
30636;BME280;17400;52.392;9.750;2023-07-13T08:28:01;100873.56;;;21.05;72.72
30636;BME280;17400;52.392;9.750;2023-07-13T08:30:33;100866.53;;;20.87;73.53
30636;BME280;17400;52.392;9.750;2023-07-13T08:33:00;100873.41;;;20.90;74.12
30636;BME280;17400;52.392;9.750;2023-07-13T08:35:30;100876.47;;;20.93;74.07
30636;BME280;17400;52.392;9.750;2023-07-13T08:37:57;100884.16;;;20.91;74.50
30636;BME280;17400;52.392;9.750;2023-07-13T08:40:27;100875.69;;;20.98;74.45
30636;BME280;17400;52.392;9.750;2023-07-13T08:42:58;100874.63;;;21.04;74.50
30636;BME280;17400;52.392;9.750;2023-07-13T08:45:30;100874.69;;;21.09;74.40
30636;BME280;17400;52.392;9.750;2023-07-13T08:48:03;100882.47;;;21.23;74.11
30636;BME280;17400;52.392;9.750;2023-07-13T08:50:37;100878.75;;;21.39;73.61
30636;BME280;17400;52.392;9.750;2023-07-13T08:53:31;100882.31;;;21.40;73.59
30636;BME280;17400;52.392;9.750;2023-07-13T08:56:02;100877.56;;;21.25;73.42
30636;BME280;17400;52.392;9.750;2023-07-13T08:58:33;100883.03;;;21.20;73.39
30636;BME280;17400;52.392;9.750;2023-07-13T09:01:05;100879.75;;;21.28;72.65
30636;BME280;17400;52.392;9.750;2023-07-13T09:03:45;100881.22;;;21.41;72.93
30636;BME280;17400;52.392;9.750;2023-07-13T09:06:16;100869.38;;;21.40;73.63
30636;BME280;17400;52.392;9.750;2023-07-13T09:08:53;100884.06;;;21.51;73.56
30636;BME280;17400;52.392;9.750;2023-07-13T09:11:36;100883.00;;;21.57;72.16
30636;BME280;17400;52.392;9.750;2023-07-13T09:14:31;100881.09;;;21.58;71.09
30636;BME280;17400;52.392;9.750;2023-07-13T09:17:03;100894.28;;;21.56;71.19
30636;BME280;17400;52.392;9.750;2023-07-13T09:19:34;100895.81;;;21.41;71.27
30636;BME280;17400;52.392;9.750;2023-07-13T09:22:10;100889.56;;;21.51;71.47
30636;BME280;17400;52.392;9.750;2023-07-13T09:24:48;100893.88;;;21.37;72.49
30636;BME280;17400;52.392;9.750;2023-07-13T09:27:21;100897.78;;;21.46;73.00
30636;BME280;17400;52.392;9.750;2023-07-13T09:29:57;100885.47;;;21.59;69.69
30636;BME280;17400;52.392;9.750;2023-07-13T09:32:26;100891.91;;;21.70;69.07
30636;BME280;17400;52.392;9.750;2023-07-13T09:34:55;100879.53;;;21.83;68.73
30636;BME280;17400;52.392;9.750;2023-07-13T09:37:30;100882.41;;;22.03;67.18
30636;BME280;17400;52.392;9.750;2023-07-13T09:39:59;100888.75;;;22.09;67.19
30636;BME280;17400;52.392;9.750;2023-07-13T09:42:32;100886.78;;;21.94;67.82
30636;BME280;17400;52.392;9.750;2023-07-13T09:45:01;100890.81;;;21.76;69.27
30636;BME280;17400;52.392;9.750;2023-07-13T09:47:31;100887.53;;;21.79;69.67
30636;BME280;17400;52.392;9.750;2023-07-13T09:50:01;100885.59;;;21.79;68.90
30636;BME280;17400;52.392;9.750;2023-07-13T09:52:41;100878.16;;;21.80;67.59
30636;BME280;17400;52.392;9.750;2023-07-13T09:55:25;100881.72;;;21.75;66.51
30636;BME280;17400;52.392;9.750;2023-07-13T09:57:54;100880.09;;;21.79;66.31
30636;BME280;17400;52.392;9.750;2023-07-13T10:00:25;100885.56;;;21.74;64.94
30636;BME280;17400;52.392;9.750;2023-07-13T10:03:02;100888.03;;;21.71;65.60
30636;BME280;17400;52.392;9.750;2023-07-13T10:05:39;100884.00;;;21.89;65.15
30636;BME280;17400;52.392;9.750;2023-07-13T10:08:17;100891.75;;;22.02;65.14
30636;BME280;17400;52.392;9.750;2023-07-13T10:10:46;100890.66;;;22.03;64.70
30636;BME280;17400;52.392;9.750;2023-07-13T10:13:27;100886.19;;;21.92;63.74
30636;BME280;17400;52.392;9.750;2023-07-13T10:15:56;100899.47;;;22.00;63.92
30636;BME280;17400;52.392;9.750;2023-07-13T10:18:25;100896.47;;;22.12;63.09
30636;BME280;17400;52.392;9.750;2023-07-13T10:21:00;100883.00;;;22.21;62.26
30636;BME280;17400;52.392;9.750;2023-07-13T10:24:04;100881.41;;;22.35;61.09
30636;BME280;17400;52.392;9.750;2023-07-13T10:26:34;100880.84;;;22.38;59.55
30636;BME280;17400;52.392;9.750;2023-07-13T10:29:05;100873.16;;;22.40;58.89
30636;BME280;17400;52.392;9.750;2023-07-13T10:31:38;100885.84;;;22.41;59.45
30636;BME280;17400;52.392;9.750;2023-07-13T10:34:09;100890.81;;;22.44;60.84
30636;BME280;17400;52.392;9.750;2023-07-13T10:36:40;100881.97;;;22.42;60.08
30636;BME280;17400;52.392;9.750;2023-07-13T10:39:16;100884.47;;;22.44;59.60
30636;BME280;17400;52.392;9.750;2023-07-13T10:41:49;100886.97;;;22.45;57.47
30636;BME280;17400;52.392;9.750;2023-07-13T10:44:22;100882.25;;;22.46;56.84
30636;BME280;17400;52.392;9.750;2023-07-13T10:46:55;100891.38;;;22.46;56.68
30636;BME280;17400;52.392;9.750;2023-07-13T10:49:26;100872.88;;;22.47;56.34
30636;BME280;17400;52.392;9.750;2023-07-13T10:51:58;100883.09;;;22.41;56.17
30636;BME280;17400;52.392;9.750;2023-07-13T10:54:30;100882.25;;;22.46;55.83
30636;BME280;17400;52.392;9.750;2023-07-13T10:57:16;100889.16;;;22.43;55.97
30636;BME280;17400;52.392;9.750;2023-07-13T10:59:49;100884.75;;;22.37;56.63
30636;BME280;17400;52.392;9.750;2023-07-13T11:02:25;100893.25;;;22.30;58.25
30636;BME280;17400;52.392;9.750;2023-07-13T11:04:55;100897.97;;;22.35;58.16
30636;BME280;17400;52.392;9.750;2023-07-13T11:07:26;100892.50;;;22.51;57.18
30636;BME280;17400;52.392;9.750;2023-07-13T11:09:57;100891.94;;;22.64;57.69
30636;BME280;17400;52.392;9.750;2023-07-13T11:15:11;100895.00;;;22.68;56.87
30636;BME280;17400;52.392;9.750;2023-07-13T11:17:51;100888.63;;;22.67;56.50
30636;BME280;17400;52.392;9.750;2023-07-13T11:20:38;100890.84;;;22.65;57.50
30636;BME280;17400;52.392;9.750;2023-07-13T11:23:18;100896.38;;;22.60;57.43
30636;BME280;17400;52.392;9.750;2023-07-13T11:25:48;100896.34;;;22.50;58.08
30636;BME280;17400;52.392;9.750;2023-07-13T11:28:21;100892.44;;;22.35;59.04
30636;BME280;17400;52.392;9.750;2023-07-13T11:31:01;100892.13;;;22.32;59.25
30636;BME280;17400;52.392;9.750;2023-07-13T11:33:52;100888.34;;;22.53;59.54
30636;BME280;17400;52.392;9.750;2023-07-13T11:36:22;100876.78;;;22.77;58.72
30636;BME280;17400;52.392;9.750;2023-07-13T11:38:59;100869.34;;;22.93;57.05
30636;BME280;17400;52.392;9.750;2023-07-13T11:41:30;100869.31;;;23.08;57.07
30636;BME280;17400;52.392;9.750;2023-07-13T11:44:07;100868.22;;;23.30;55.92
30636;BME280;17400;52.392;9.750;2023-07-13T11:46:35;100873.19;;;23.38;53.45
30636;BME280;17400;52.392;9.750;2023-07-13T11:49:05;100857.94;;;23.56;52.00
30636;BME280;17400;52.392;9.750;2023-07-13T11:51:36;100862.97;;;24.15;49.61
30636;BME280;17400;52.392;9.750;2023-07-13T11:54:06;100871.50;;;24.18;50.63
30636;BME280;17400;52.392;9.750;2023-07-13T11:56:36;100869.66;;;24.03;49.42
30636;BME280;17400;52.392;9.750;2023-07-13T11:59:06;100865.53;;;24.01;49.55
30636;BME280;17400;52.392;9.750;2023-07-13T12:01:42;100858.56;;;24.14;48.91
30636;BME280;17400;52.392;9.750;2023-07-13T12:04:20;100856.31;;;24.16;48.78
30636;BME280;17400;52.392;9.750;2023-07-13T12:06:55;100855.22;;;24.11;47.07
30636;BME280;17400;52.392;9.750;2023-07-13T12:09:26;100853.75;;;24.29;46.90
30636;BME280;17400;52.392;9.750;2023-07-13T12:11:57;100866.97;;;25.12;44.28
30636;BME280;17400;52.392;9.750;2023-07-13T12:14:27;100869.00;;;25.84;41.73
30636;BME280;17400;52.392;9.750;2023-07-13T12:16:55;100853.59;;;25.97;41.35
30636;BME280;17400;52.392;9.750;2023-07-13T12:19:27;100856.31;;;26.40;41.22
30636;BME280;17400;52.392;9.750;2023-07-13T12:21:58;100858.84;;;26.75;40.95
30636;BME280;17400;52.392;9.750;2023-07-13T12:24:27;100863.44;;;26.85;41.35
30636;BME280;17400;52.392;9.750;2023-07-13T12:27:00;100863.94;;;26.87;40.25
30636;BME280;17400;52.392;9.750;2023-07-13T12:29:32;100866.13;;;27.04;39.84
30636;BME280;17400;52.392;9.750;2023-07-13T12:32:00;100869.69;;;26.76;39.96
30636;BME280;17400;52.392;9.750;2023-07-13T12:34:29;100881.56;;;25.76;41.60
30636;BME280;17400;52.392;9.750;2023-07-13T12:37:00;100881.19;;;25.35;42.66
30636;BME280;17400;52.392;9.750;2023-07-13T12:39:33;100879.63;;;25.23;43.83
30636;BME280;17400;52.392;9.750;2023-07-13T12:42:18;100877.53;;;25.39;44.14
30636;BME280;17400;52.392;9.750;2023-07-13T12:44:47;100872.88;;;26.07;43.03
30636;BME280;17400;52.392;9.750;2023-07-13T12:47:15;100855.84;;;26.52;41.33
30636;BME280;17400;52.392;9.750;2023-07-13T12:49:50;100875.59;;;26.51;40.48
30636;BME280;17400;52.392;9.750;2023-07-13T12:52:22;100872.91;;;26.02;41.12
30636;BME280;17400;52.392;9.750;2023-07-13T12:54:53;100881.63;;;25.47;42.51
30636;BME280;17400;52.392;9.750;2023-07-13T12:57:38;100888.44;;;24.96;43.28
30636;BME280;17400;52.392;9.750;2023-07-13T13:00:21;100889.72;;;24.74;43.83
30636;BME280;17400;52.392;9.750;2023-07-13T13:02:53;100899.72;;;24.70;44.21
30636;BME280;17400;52.392;9.750;2023-07-13T13:05:44;100898.81;;;24.35;44.78
30636;BME280;17400;52.392;9.750;2023-07-13T13:08:12;100907.22;;;24.20;45.60
30636;BME280;17400;52.392;9.750;2023-07-13T13:10:41;100962.88;;;23.82;66.95